<?xml version="1.0" encoding="UTF-8" standalone="no" ?>
<gpx xmlns="http://www.topografix.com/GPX/1/1" xmlns:xsi="http://www.w3.org/2001/XMLSchema-instance" xsi:schemaLocation="http://www.topografix.com/GPX/1/1 http://www.topografix.com/GPX/1/1/gpx.xsd" version="1.1" creator="VisuGPX - https://www.visugpx.com">
  <metadata>
    <name>LaMontagne_BourgCoteauxRocheBalue_5-10km</name>
    <desc><![CDATA[gnerando idor:7892356_7892816-7892347_7893056]]></desc>
  </metadata>
  <trk>
    <name><![CDATA[LaMontagne_Bourg_8km-7893056]]></name>
    <extensions>
      <line xmlns="http://www.topografix.com/GPX/gpx_style/0/2">
        <color>0000FF</color>
        <width>4</width>
      </line>
    </extensions>
    <trkseg>
      <trkpt lat="47.1836" lon="-1.67629">
        <ele>31</ele>
        <time>2023-11-04T12:25:38Z</time>
      </trkpt>
      <trkpt lat="47.18375" lon="-1.67612">
        <ele>31</ele>
        <time>2023-11-04T12:26:03Z</time>
      </trkpt>
      <trkpt lat="47.18379" lon="-1.67633">
        <ele>31</ele>
        <time>2023-11-04T12:26:23Z</time>
      </trkpt>
      <trkpt lat="47.18399" lon="-1.6769">
        <ele>31</ele>
        <time>2023-11-04T12:27:21Z</time>
      </trkpt>
      <trkpt lat="47.18413" lon="-1.67733">
        <ele>31</ele>
        <time>2023-11-04T12:28:04Z</time>
      </trkpt>
      <trkpt lat="47.18414" lon="-1.6776">
        <ele>31</ele>
        <time>2023-11-04T12:28:29Z</time>
      </trkpt>
      <trkpt lat="47.18421" lon="-1.67788">
        <ele>31</ele>
        <time>2023-11-04T12:28:56Z</time>
      </trkpt>
      <trkpt lat="47.18432" lon="-1.6781">
        <ele>32</ele>
        <time>2023-11-04T12:29:21Z</time>
      </trkpt>
      <trkpt lat="47.18462" lon="-1.67797">
        <ele>32</ele>
        <time>2023-11-04T12:30:03Z</time>
      </trkpt>
      <trkpt lat="47.18235" lon="-1.67883">
        <ele>33</ele>
        <time>2023-11-04T12:35:15Z</time>
      </trkpt>
      <trkpt lat="47.17945" lon="-1.67924">
        <ele>34</ele>
        <time>2023-11-04T12:41:44Z</time>
      </trkpt>
      <trkpt lat="47.17788" lon="-1.68087">
        <ele>35</ele>
        <time>2023-11-04T12:46:01Z</time>
      </trkpt>
      <trkpt lat="47.17723" lon="-1.68343">
        <ele>34</ele>
        <time>2023-11-04T12:50:08Z</time>
      </trkpt>
      <trkpt lat="47.17699" lon="-1.68617">
        <ele>31</ele>
        <time>2023-11-04T12:54:19Z</time>
      </trkpt>
      <trkpt lat="47.17825" lon="-1.68887">
        <ele>29</ele>
        <time>2023-11-04T12:59:16Z</time>
      </trkpt>
      <trkpt lat="47.17898" lon="-1.68977">
        <ele>27</ele>
        <time>2023-11-04T13:01:23Z</time>
      </trkpt>
      <trkpt lat="47.18026" lon="-1.69042">
        <ele>27</ele>
        <time>2023-11-04T13:04:24Z</time>
      </trkpt>
      <trkpt lat="47.18055" lon="-1.69235">
        <ele>30</ele>
        <time>2023-11-04T13:07:23Z</time>
      </trkpt>
      <trkpt lat="47.18213" lon="-1.69248">
        <ele>31</ele>
        <time>2023-11-04T13:10:54Z</time>
      </trkpt>
      <trkpt lat="47.18391" lon="-1.69286">
        <ele>30</ele>
        <time>2023-11-04T13:14:54Z</time>
      </trkpt>
      <trkpt lat="47.18391" lon="-1.69119">
        <ele>29</ele>
        <time>2023-11-04T13:17:26Z</time>
      </trkpt>
      <trkpt lat="47.18433" lon="-1.69084">
        <ele>28</ele>
        <time>2023-11-04T13:18:30Z</time>
      </trkpt>
      <trkpt lat="47.18461" lon="-1.69057">
        <ele>27</ele>
        <time>2023-11-04T13:19:15Z</time>
      </trkpt>
      <trkpt lat="47.18478" lon="-1.6903">
        <ele>27</ele>
        <time>2023-11-04T13:19:48Z</time>
      </trkpt>
      <trkpt lat="47.18466" lon="-1.68957">
        <ele>27</ele>
        <time>2023-11-04T13:20:56Z</time>
      </trkpt>
      <trkpt lat="47.18366" lon="-1.68957">
        <ele>26</ele>
        <time>2023-11-04T13:23:10Z</time>
      </trkpt>
      <trkpt lat="47.18345" lon="-1.68796">
        <ele>23</ele>
        <time>2023-11-04T13:25:39Z</time>
      </trkpt>
      <trkpt lat="47.18351" lon="-1.68772">
        <ele>23</ele>
        <time>2023-11-04T13:26:02Z</time>
      </trkpt>
      <trkpt lat="47.18398" lon="-1.68723">
        <ele>24</ele>
        <time>2023-11-04T13:27:19Z</time>
      </trkpt>
      <trkpt lat="47.18401" lon="-1.68701">
        <ele>24</ele>
        <time>2023-11-04T13:27:39Z</time>
      </trkpt>
      <trkpt lat="47.18369" lon="-1.68654">
        <ele>25</ele>
        <time>2023-11-04T13:28:39Z</time>
      </trkpt>
      <trkpt lat="47.18348" lon="-1.68557">
        <ele>27</ele>
        <time>2023-11-04T13:30:12Z</time>
      </trkpt>
      <trkpt lat="47.18416" lon="-1.68496">
        <ele>29</ele>
        <time>2023-11-04T13:31:58Z</time>
      </trkpt>
      <trkpt lat="47.18416" lon="-1.68562">
        <ele>28</ele>
        <time>2023-11-04T13:32:58Z</time>
      </trkpt>
      <trkpt lat="47.18452" lon="-1.68661">
        <ele>24</ele>
        <time>2023-11-04T13:34:40Z</time>
      </trkpt>
      <trkpt lat="47.1845" lon="-1.68657">
        <ele>24</ele>
        <time>2023-11-04T13:34:44Z</time>
      </trkpt>
      <trkpt lat="47.18451" lon="-1.68662">
        <ele>24</ele>
        <time>2023-11-04T13:34:49Z</time>
      </trkpt>
      <trkpt lat="47.18463" lon="-1.68689">
        <ele>24</ele>
        <time>2023-11-04T13:35:18Z</time>
      </trkpt>
      <trkpt lat="47.18481" lon="-1.68736">
        <ele>23</ele>
        <time>2023-11-04T13:36:07Z</time>
      </trkpt>
      <trkpt lat="47.18488" lon="-1.68773">
        <ele>23</ele>
        <time>2023-11-04T13:36:42Z</time>
      </trkpt>
      <trkpt lat="47.18503" lon="-1.68803">
        <ele>23</ele>
        <time>2023-11-04T13:37:16Z</time>
      </trkpt>
      <trkpt lat="47.18528" lon="-1.68803">
        <ele>22</ele>
        <time>2023-11-04T13:37:49Z</time>
      </trkpt>
      <trkpt lat="47.18569" lon="-1.68798">
        <ele>22</ele>
        <time>2023-11-04T13:38:44Z</time>
      </trkpt>
      <trkpt lat="47.18613" lon="-1.68794">
        <ele>22</ele>
        <time>2023-11-04T13:39:43Z</time>
      </trkpt>
      <trkpt lat="47.18649" lon="-1.68783">
        <ele>21</ele>
        <time>2023-11-04T13:40:32Z</time>
      </trkpt>
      <trkpt lat="47.18681" lon="-1.68775">
        <ele>21</ele>
        <time>2023-11-04T13:41:15Z</time>
      </trkpt>
      <trkpt lat="47.18703" lon="-1.68771">
        <ele>21</ele>
        <time>2023-11-04T13:41:45Z</time>
      </trkpt>
      <trkpt lat="47.18715" lon="-1.68806">
        <ele>20</ele>
        <time>2023-11-04T13:42:20Z</time>
      </trkpt>
      <trkpt lat="47.18725" lon="-1.68851">
        <ele>19</ele>
        <time>2023-11-04T13:43:03Z</time>
      </trkpt>
      <trkpt lat="47.18783" lon="-1.68959">
        <ele>18</ele>
        <time>2023-11-04T13:45:08Z</time>
      </trkpt>
      <trkpt lat="47.18795" lon="-1.69">
        <ele>18</ele>
        <time>2023-11-04T13:45:49Z</time>
      </trkpt>
      <trkpt lat="47.18802" lon="-1.69041">
        <ele>18</ele>
        <time>2023-11-04T13:46:27Z</time>
      </trkpt>
      <trkpt lat="47.18847" lon="-1.69032">
        <ele>19</ele>
        <time>2023-11-04T13:47:27Z</time>
      </trkpt>
      <trkpt lat="47.18885" lon="-1.69032">
        <ele>21</ele>
        <time>2023-11-04T13:48:18Z</time>
      </trkpt>
      <trkpt lat="47.18919" lon="-1.69084">
        <ele>23</ele>
        <time>2023-11-04T13:49:24Z</time>
      </trkpt>
      <trkpt lat="47.18939" lon="-1.69118">
        <ele>24</ele>
        <time>2023-11-04T13:50:04Z</time>
      </trkpt>
      <trkpt lat="47.18971" lon="-1.69189">
        <ele>26</ele>
        <time>2023-11-04T13:51:22Z</time>
      </trkpt>
      <trkpt lat="47.18979" lon="-1.69217">
        <ele>26</ele>
        <time>2023-11-04T13:51:49Z</time>
      </trkpt>
      <trkpt lat="47.18956" lon="-1.6924">
        <ele>24</ele>
        <time>2023-11-04T13:52:26Z</time>
      </trkpt>
      <trkpt lat="47.18946" lon="-1.69257">
        <ele>23</ele>
        <time>2023-11-04T13:52:47Z</time>
      </trkpt>
      <trkpt lat="47.18876" lon="-1.69287">
        <ele>21</ele>
        <time>2023-11-04T13:54:24Z</time>
      </trkpt>
      <trkpt lat="47.18868" lon="-1.69353">
        <ele>22</ele>
        <time>2023-11-04T13:55:25Z</time>
      </trkpt>
      <trkpt lat="47.18833" lon="-1.69421">
        <ele>23</ele>
        <time>2023-11-04T13:56:42Z</time>
      </trkpt>
      <trkpt lat="47.18865" lon="-1.69495">
        <ele>24</ele>
        <time>2023-11-04T13:58:02Z</time>
      </trkpt>
      <trkpt lat="47.18988" lon="-1.69553">
        <ele>25</ele>
        <time>2023-11-04T14:00:54Z</time>
      </trkpt>
      <trkpt lat="47.19046" lon="-1.69587">
        <ele>21</ele>
        <time>2023-11-04T14:02:17Z</time>
      </trkpt>
      <trkpt lat="47.19069" lon="-1.6956">
        <ele>19</ele>
        <time>2023-11-04T14:02:57Z</time>
      </trkpt>
      <trkpt lat="47.19089" lon="-1.69523">
        <ele>17</ele>
        <time>2023-11-04T14:03:40Z</time>
      </trkpt>
      <trkpt lat="47.19069" lon="-1.69409">
        <ele>22</ele>
        <time>2023-11-04T14:05:26Z</time>
      </trkpt>
      <trkpt lat="47.1906" lon="-1.69216">
        <ele>28</ele>
        <time>2023-11-04T14:08:22Z</time>
      </trkpt>
      <trkpt lat="47.19008" lon="-1.69071">
        <ele>29</ele>
        <time>2023-11-04T14:10:50Z</time>
      </trkpt>
      <trkpt lat="47.19075" lon="-1.69051">
        <ele>31</ele>
        <time>2023-11-04T14:12:22Z</time>
      </trkpt>
      <trkpt lat="47.19135" lon="-1.69183">
        <ele>30</ele>
        <time>2023-11-04T14:14:46Z</time>
      </trkpt>
      <trkpt lat="47.19167" lon="-1.69157">
        <ele>31</ele>
        <time>2023-11-04T14:15:34Z</time>
      </trkpt>
      <trkpt lat="47.19224" lon="-1.69126">
        <ele>31</ele>
        <time>2023-11-04T14:16:56Z</time>
      </trkpt>
      <trkpt lat="47.19261" lon="-1.69083">
        <ele>30</ele>
        <time>2023-11-04T14:17:58Z</time>
      </trkpt>
      <trkpt lat="47.19288" lon="-1.69064">
        <ele>29</ele>
        <time>2023-11-04T14:18:38Z</time>
      </trkpt>
      <trkpt lat="47.19306" lon="-1.69042">
        <ele>29</ele>
        <time>2023-11-04T14:19:10Z</time>
      </trkpt>
      <trkpt lat="47.19336" lon="-1.69021">
        <ele>27</ele>
        <time>2023-11-04T14:19:54Z</time>
      </trkpt>
      <trkpt lat="47.19322" lon="-1.69001">
        <ele>29</ele>
        <time>2023-11-04T14:20:20Z</time>
      </trkpt>
      <trkpt lat="47.19275" lon="-1.68904">
        <ele>30</ele>
        <time>2023-11-04T14:22:08Z</time>
      </trkpt>
      <trkpt lat="47.19237" lon="-1.6883">
        <ele>31</ele>
        <time>2023-11-04T14:23:32Z</time>
      </trkpt>
      <trkpt lat="47.19237" lon="-1.68796">
        <ele>30</ele>
        <time>2023-11-04T14:24:03Z</time>
      </trkpt>
      <trkpt lat="47.19227" lon="-1.68739">
        <ele>29</ele>
        <time>2023-11-04T14:24:56Z</time>
      </trkpt>
      <trkpt lat="47.19209" lon="-1.68719">
        <ele>30</ele>
        <time>2023-11-04T14:25:26Z</time>
      </trkpt>
      <trkpt lat="47.19175" lon="-1.68683">
        <ele>34</ele>
        <time>2023-11-04T14:26:22Z</time>
      </trkpt>
      <trkpt lat="47.19167" lon="-1.68655">
        <ele>35</ele>
        <time>2023-11-04T14:26:50Z</time>
      </trkpt>
      <trkpt lat="47.1917" lon="-1.68645">
        <ele>35</ele>
        <time>2023-11-04T14:27:00Z</time>
      </trkpt>
      <trkpt lat="47.19157" lon="-1.68594">
        <ele>35</ele>
        <time>2023-11-04T14:27:49Z</time>
      </trkpt>
      <trkpt lat="47.19142" lon="-1.68548">
        <ele>35</ele>
        <time>2023-11-04T14:28:35Z</time>
      </trkpt>
      <trkpt lat="47.1913" lon="-1.68507">
        <ele>34</ele>
        <time>2023-11-04T14:29:16Z</time>
      </trkpt>
      <trkpt lat="47.19114" lon="-1.68465">
        <ele>35</ele>
        <time>2023-11-04T14:30:00Z</time>
      </trkpt>
      <trkpt lat="47.19108" lon="-1.68451">
        <ele>35</ele>
        <time>2023-11-04T14:30:15Z</time>
      </trkpt>
      <trkpt lat="47.19096" lon="-1.68417">
        <ele>35</ele>
        <time>2023-11-04T14:30:49Z</time>
      </trkpt>
      <trkpt lat="47.19097" lon="-1.6838">
        <ele>35</ele>
        <time>2023-11-04T14:31:23Z</time>
      </trkpt>
      <trkpt lat="47.19086" lon="-1.68375">
        <ele>36</ele>
        <time>2023-11-04T14:31:38Z</time>
      </trkpt>
      <trkpt lat="47.19059" lon="-1.6839">
        <ele>37</ele>
        <time>2023-11-04T14:32:17Z</time>
      </trkpt>
      <trkpt lat="47.19035" lon="-1.68396">
        <ele>38</ele>
        <time>2023-11-04T14:32:49Z</time>
      </trkpt>
      <trkpt lat="47.1903" lon="-1.68368">
        <ele>38</ele>
        <time>2023-11-04T14:33:16Z</time>
      </trkpt>
      <trkpt lat="47.19027" lon="-1.68331">
        <ele>38</ele>
        <time>2023-11-04T14:33:49Z</time>
      </trkpt>
      <trkpt lat="47.19029" lon="-1.68303">
        <ele>38</ele>
        <time>2023-11-04T14:34:15Z</time>
      </trkpt>
      <trkpt lat="47.1904" lon="-1.68291">
        <ele>37</ele>
        <time>2023-11-04T14:34:33Z</time>
      </trkpt>
      <trkpt lat="47.19058" lon="-1.68278">
        <ele>36</ele>
        <time>2023-11-04T14:35:00Z</time>
      </trkpt>
      <trkpt lat="47.19087" lon="-1.68259">
        <ele>34</ele>
        <time>2023-11-04T14:35:42Z</time>
      </trkpt>
      <trkpt lat="47.19092" lon="-1.68277">
        <ele>34</ele>
        <time>2023-11-04T14:36:00Z</time>
      </trkpt>
      <trkpt lat="47.19104" lon="-1.68269">
        <ele>32</ele>
        <time>2023-11-04T14:36:17Z</time>
      </trkpt>
      <trkpt lat="47.19122" lon="-1.68256">
        <ele>28</ele>
        <time>2023-11-04T14:36:44Z</time>
      </trkpt>
      <trkpt lat="47.19116" lon="-1.68231">
        <ele>28</ele>
        <time>2023-11-04T14:37:08Z</time>
      </trkpt>
      <trkpt lat="47.19119" lon="-1.68184">
        <ele>26</ele>
        <time>2023-11-04T14:37:51Z</time>
      </trkpt>
      <trkpt lat="47.19115" lon="-1.6815">
        <ele>25</ele>
        <time>2023-11-04T14:38:22Z</time>
      </trkpt>
      <trkpt lat="47.19102" lon="-1.68101">
        <ele>25</ele>
        <time>2023-11-04T14:39:10Z</time>
      </trkpt>
      <trkpt lat="47.19087" lon="-1.68061">
        <ele>25</ele>
        <time>2023-11-04T14:39:51Z</time>
      </trkpt>
      <trkpt lat="47.19074" lon="-1.68039">
        <ele>24</ele>
        <time>2023-11-04T14:40:18Z</time>
      </trkpt>
      <trkpt lat="47.19042" lon="-1.68029">
        <ele>27</ele>
        <time>2023-11-04T14:41:02Z</time>
      </trkpt>
      <trkpt lat="47.19015" lon="-1.68023">
        <ele>30</ele>
        <time>2023-11-04T14:41:38Z</time>
      </trkpt>
      <trkpt lat="47.18997" lon="-1.68031">
        <ele>33</ele>
        <time>2023-11-04T14:42:03Z</time>
      </trkpt>
      <trkpt lat="47.18987" lon="-1.68009">
        <ele>32</ele>
        <time>2023-11-04T14:42:27Z</time>
      </trkpt>
      <trkpt lat="47.18983" lon="-1.6799">
        <ele>31</ele>
        <time>2023-11-04T14:42:45Z</time>
      </trkpt>
      <trkpt lat="47.18973" lon="-1.67972">
        <ele>30</ele>
        <time>2023-11-04T14:43:06Z</time>
      </trkpt>
      <trkpt lat="47.18983" lon="-1.6796">
        <ele>29</ele>
        <time>2023-11-04T14:43:23Z</time>
      </trkpt>
      <trkpt lat="47.18985" lon="-1.67941">
        <ele>27</ele>
        <time>2023-11-04T14:43:41Z</time>
      </trkpt>
      <trkpt lat="47.18975" lon="-1.67908">
        <ele>26</ele>
        <time>2023-11-04T14:44:14Z</time>
      </trkpt>
      <trkpt lat="47.18955" lon="-1.67883">
        <ele>26</ele>
        <time>2023-11-04T14:44:49Z</time>
      </trkpt>
      <trkpt lat="47.18938" lon="-1.67875">
        <ele>28</ele>
        <time>2023-11-04T14:45:12Z</time>
      </trkpt>
      <trkpt lat="47.18918" lon="-1.67891">
        <ele>32</ele>
        <time>2023-11-04T14:45:43Z</time>
      </trkpt>
      <trkpt lat="47.18918" lon="-1.67862">
        <ele>30</ele>
        <time>2023-11-04T14:46:09Z</time>
      </trkpt>
      <trkpt lat="47.18914" lon="-1.67815">
        <ele>30</ele>
        <time>2023-11-04T14:46:52Z</time>
      </trkpt>
      <trkpt lat="47.18906" lon="-1.67774">
        <ele>31</ele>
        <time>2023-11-04T14:47:31Z</time>
      </trkpt>
      <trkpt lat="47.18906" lon="-1.67745">
        <ele>32</ele>
        <time>2023-11-04T14:47:57Z</time>
      </trkpt>
      <trkpt lat="47.18898" lon="-1.67719">
        <ele>32</ele>
        <time>2023-11-04T14:48:23Z</time>
      </trkpt>
      <trkpt lat="47.18886" lon="-1.67701">
        <ele>33</ele>
        <time>2023-11-04T14:48:46Z</time>
      </trkpt>
      <trkpt lat="47.18862" lon="-1.67701">
        <ele>34</ele>
        <time>2023-11-04T14:49:18Z</time>
      </trkpt>
      <trkpt lat="47.1884" lon="-1.67708">
        <ele>36</ele>
        <time>2023-11-04T14:49:48Z</time>
      </trkpt>
      <trkpt lat="47.18815" lon="-1.67718">
        <ele>37</ele>
        <time>2023-11-04T14:50:23Z</time>
      </trkpt>
      <trkpt lat="47.18814" lon="-1.67703">
        <ele>37</ele>
        <time>2023-11-04T14:50:36Z</time>
      </trkpt>
      <trkpt lat="47.18796" lon="-1.67652">
        <ele>37</ele>
        <time>2023-11-04T14:51:28Z</time>
      </trkpt>
      <trkpt lat="47.18772" lon="-1.67626">
        <ele>38</ele>
        <time>2023-11-04T14:52:08Z</time>
      </trkpt>
      <trkpt lat="47.18761" lon="-1.67605">
        <ele>38</ele>
        <time>2023-11-04T14:52:32Z</time>
      </trkpt>
      <trkpt lat="47.1871" lon="-1.67621">
        <ele>38</ele>
        <time>2023-11-04T14:53:42Z</time>
      </trkpt>
      <trkpt lat="47.18687" lon="-1.67614">
        <ele>38</ele>
        <time>2023-11-04T14:54:13Z</time>
      </trkpt>
      <trkpt lat="47.18663" lon="-1.67585">
        <ele>39</ele>
        <time>2023-11-04T14:54:54Z</time>
      </trkpt>
      <trkpt lat="47.18635" lon="-1.67545">
        <ele>39</ele>
        <time>2023-11-04T14:55:47Z</time>
      </trkpt>
      <trkpt lat="47.18622" lon="-1.67514">
        <ele>38</ele>
        <time>2023-11-04T14:56:20Z</time>
      </trkpt>
      <trkpt lat="47.18609" lon="-1.6748">
        <ele>39</ele>
        <time>2023-11-04T14:56:55Z</time>
      </trkpt>
      <trkpt lat="47.18592" lon="-1.6743">
        <ele>40</ele>
        <time>2023-11-04T14:57:46Z</time>
      </trkpt>
      <trkpt lat="47.18576" lon="-1.67388">
        <ele>40</ele>
        <time>2023-11-04T14:58:29Z</time>
      </trkpt>
      <trkpt lat="47.18546" lon="-1.6741">
        <ele>40</ele>
        <time>2023-11-04T14:59:14Z</time>
      </trkpt>
      <trkpt lat="47.18523" lon="-1.67401">
        <ele>39</ele>
        <time>2023-11-04T14:59:46Z</time>
      </trkpt>
      <trkpt lat="47.1851" lon="-1.67429">
        <ele>38</ele>
        <time>2023-11-04T15:00:17Z</time>
      </trkpt>
      <trkpt lat="47.18433" lon="-1.67474">
        <ele>34</ele>
        <time>2023-11-04T15:02:07Z</time>
      </trkpt>
      <trkpt lat="47.18351" lon="-1.67528">
        <ele>31</ele>
        <time>2023-11-04T15:04:07Z</time>
      </trkpt>
    </trkseg>
  </trk>
  <trk>
    <name><![CDATA[LaMontagne_AutourDuBourg_4.8km-7892816]]></name>
    <extensions>
      <line xmlns="http://www.topografix.com/GPX/gpx_style/0/2">
        <color>00FF00</color>
        <width>4</width>
      </line>
    </extensions>
    <trkseg>
      <trkpt lat="47.1836" lon="-1.67629">
        <ele>31</ele>
        <time>2023-11-04T12:25:20Z</time>
      </trkpt>
      <trkpt lat="47.18375" lon="-1.67612">
        <ele>31</ele>
        <time>2023-11-04T12:25:45Z</time>
      </trkpt>
      <trkpt lat="47.18379" lon="-1.67633">
        <ele>31</ele>
        <time>2023-11-04T12:26:05Z</time>
      </trkpt>
      <trkpt lat="47.18399" lon="-1.6769">
        <ele>31</ele>
        <time>2023-11-04T12:27:03Z</time>
      </trkpt>
      <trkpt lat="47.18413" lon="-1.67733">
        <ele>31</ele>
        <time>2023-11-04T12:27:46Z</time>
      </trkpt>
      <trkpt lat="47.18414" lon="-1.6776">
        <ele>31</ele>
        <time>2023-11-04T12:28:11Z</time>
      </trkpt>
      <trkpt lat="47.18421" lon="-1.67788">
        <ele>31</ele>
        <time>2023-11-04T12:28:38Z</time>
      </trkpt>
      <trkpt lat="47.18432" lon="-1.6781">
        <ele>32</ele>
        <time>2023-11-04T12:29:03Z</time>
      </trkpt>
      <trkpt lat="47.18462" lon="-1.67791">
        <ele>32</ele>
        <time>2023-11-04T12:29:46Z</time>
      </trkpt>
      <trkpt lat="47.18473" lon="-1.67863">
        <ele>32</ele>
        <time>2023-11-04T12:30:53Z</time>
      </trkpt>
      <trkpt lat="47.18515" lon="-1.67847">
        <ele>32</ele>
        <time>2023-11-04T12:31:51Z</time>
      </trkpt>
      <trkpt lat="47.18424" lon="-1.6788">
        <ele>32</ele>
        <time>2023-11-04T12:33:56Z</time>
      </trkpt>
      <trkpt lat="47.18404" lon="-1.67917">
        <ele>33</ele>
        <time>2023-11-04T12:34:39Z</time>
      </trkpt>
      <trkpt lat="47.18383" lon="-1.68078">
        <ele>32</ele>
        <time>2023-11-04T12:37:08Z</time>
      </trkpt>
      <trkpt lat="47.18377" lon="-1.68083">
        <ele>32</ele>
        <time>2023-11-04T12:37:17Z</time>
      </trkpt>
      <trkpt lat="47.18359" lon="-1.68094">
        <ele>33</ele>
        <time>2023-11-04T12:37:43Z</time>
      </trkpt>
      <trkpt lat="47.18387" lon="-1.68364">
        <ele>28</ele>
        <time>2023-11-04T12:41:51Z</time>
      </trkpt>
      <trkpt lat="47.18392" lon="-1.68412">
        <ele>28</ele>
        <time>2023-11-04T12:42:35Z</time>
      </trkpt>
      <trkpt lat="47.18371" lon="-1.68436">
        <ele>28</ele>
        <time>2023-11-04T12:43:10Z</time>
      </trkpt>
      <trkpt lat="47.18403" lon="-1.68496">
        <ele>29</ele>
        <time>2023-11-04T12:44:19Z</time>
      </trkpt>
      <trkpt lat="47.1837" lon="-1.6852">
        <ele>28</ele>
        <time>2023-11-04T12:45:09Z</time>
      </trkpt>
      <trkpt lat="47.18405" lon="-1.68492">
        <ele>29</ele>
        <time>2023-11-04T12:46:02Z</time>
      </trkpt>
      <trkpt lat="47.18419" lon="-1.68498">
        <ele>29</ele>
        <time>2023-11-04T12:46:21Z</time>
      </trkpt>
      <trkpt lat="47.18416" lon="-1.68562">
        <ele>28</ele>
        <time>2023-11-04T12:47:19Z</time>
      </trkpt>
      <trkpt lat="47.18452" lon="-1.68661">
        <ele>24</ele>
        <time>2023-11-04T12:49:01Z</time>
      </trkpt>
      <trkpt lat="47.1845" lon="-1.68657">
        <ele>24</ele>
        <time>2023-11-04T12:49:06Z</time>
      </trkpt>
      <trkpt lat="47.18451" lon="-1.68662">
        <ele>24</ele>
        <time>2023-11-04T12:49:10Z</time>
      </trkpt>
      <trkpt lat="47.18463" lon="-1.68689">
        <ele>24</ele>
        <time>2023-11-04T12:49:40Z</time>
      </trkpt>
      <trkpt lat="47.18481" lon="-1.68736">
        <ele>23</ele>
        <time>2023-11-04T12:50:29Z</time>
      </trkpt>
      <trkpt lat="47.18488" lon="-1.68773">
        <ele>23</ele>
        <time>2023-11-04T12:51:04Z</time>
      </trkpt>
      <trkpt lat="47.18503" lon="-1.68803">
        <ele>23</ele>
        <time>2023-11-04T12:51:37Z</time>
      </trkpt>
      <trkpt lat="47.18528" lon="-1.68803">
        <ele>22</ele>
        <time>2023-11-04T12:52:11Z</time>
      </trkpt>
      <trkpt lat="47.18569" lon="-1.68798">
        <ele>22</ele>
        <time>2023-11-04T12:53:06Z</time>
      </trkpt>
      <trkpt lat="47.18613" lon="-1.68794">
        <ele>22</ele>
        <time>2023-11-04T12:54:04Z</time>
      </trkpt>
      <trkpt lat="47.18649" lon="-1.68783">
        <ele>21</ele>
        <time>2023-11-04T12:54:53Z</time>
      </trkpt>
      <trkpt lat="47.18681" lon="-1.68775">
        <ele>21</ele>
        <time>2023-11-04T12:55:37Z</time>
      </trkpt>
      <trkpt lat="47.18703" lon="-1.68771">
        <ele>21</ele>
        <time>2023-11-04T12:56:06Z</time>
      </trkpt>
      <trkpt lat="47.18715" lon="-1.68806">
        <ele>20</ele>
        <time>2023-11-04T12:56:42Z</time>
      </trkpt>
      <trkpt lat="47.18725" lon="-1.68851">
        <ele>19</ele>
        <time>2023-11-04T12:57:25Z</time>
      </trkpt>
      <trkpt lat="47.18753" lon="-1.68903">
        <ele>18</ele>
        <time>2023-11-04T12:58:25Z</time>
      </trkpt>
      <trkpt lat="47.18783" lon="-1.68959">
        <ele>18</ele>
        <time>2023-11-04T12:59:30Z</time>
      </trkpt>
      <trkpt lat="47.18795" lon="-1.69">
        <ele>18</ele>
        <time>2023-11-04T13:00:10Z</time>
      </trkpt>
      <trkpt lat="47.18802" lon="-1.69041">
        <ele>18</ele>
        <time>2023-11-04T13:00:48Z</time>
      </trkpt>
      <trkpt lat="47.18847" lon="-1.69032">
        <ele>19</ele>
        <time>2023-11-04T13:01:49Z</time>
      </trkpt>
      <trkpt lat="47.18885" lon="-1.69032">
        <ele>21</ele>
        <time>2023-11-04T13:02:40Z</time>
      </trkpt>
      <trkpt lat="47.18919" lon="-1.69084">
        <ele>23</ele>
        <time>2023-11-04T13:03:45Z</time>
      </trkpt>
      <trkpt lat="47.18939" lon="-1.69118">
        <ele>24</ele>
        <time>2023-11-04T13:04:26Z</time>
      </trkpt>
      <trkpt lat="47.18984" lon="-1.69089">
        <ele>27</ele>
        <time>2023-11-04T13:05:32Z</time>
      </trkpt>
      <trkpt lat="47.19066" lon="-1.69035">
        <ele>32</ele>
        <time>2023-11-04T13:07:31Z</time>
      </trkpt>
      <trkpt lat="47.19103" lon="-1.69112">
        <ele>31</ele>
        <time>2023-11-04T13:08:57Z</time>
      </trkpt>
      <trkpt lat="47.19134" lon="-1.69189">
        <ele>30</ele>
        <time>2023-11-04T13:10:18Z</time>
      </trkpt>
      <trkpt lat="47.19165" lon="-1.69161">
        <ele>31</ele>
        <time>2023-11-04T13:11:07Z</time>
      </trkpt>
      <trkpt lat="47.19202" lon="-1.69132">
        <ele>31</ele>
        <time>2023-11-04T13:12:03Z</time>
      </trkpt>
      <trkpt lat="47.19228" lon="-1.69107">
        <ele>31</ele>
        <time>2023-11-04T13:12:44Z</time>
      </trkpt>
      <trkpt lat="47.19262" lon="-1.69075">
        <ele>31</ele>
        <time>2023-11-04T13:13:38Z</time>
      </trkpt>
      <trkpt lat="47.19303" lon="-1.6905">
        <ele>29</ele>
        <time>2023-11-04T13:14:37Z</time>
      </trkpt>
      <trkpt lat="47.19336" lon="-1.69021">
        <ele>27</ele>
        <time>2023-11-04T13:15:28Z</time>
      </trkpt>
      <trkpt lat="47.19322" lon="-1.69001">
        <ele>29</ele>
        <time>2023-11-04T13:15:54Z</time>
      </trkpt>
      <trkpt lat="47.19275" lon="-1.68904">
        <ele>30</ele>
        <time>2023-11-04T13:17:43Z</time>
      </trkpt>
      <trkpt lat="47.19237" lon="-1.6883">
        <ele>31</ele>
        <time>2023-11-04T13:19:07Z</time>
      </trkpt>
      <trkpt lat="47.19237" lon="-1.68796">
        <ele>30</ele>
        <time>2023-11-04T13:19:37Z</time>
      </trkpt>
      <trkpt lat="47.19227" lon="-1.68739">
        <ele>29</ele>
        <time>2023-11-04T13:20:31Z</time>
      </trkpt>
      <trkpt lat="47.19209" lon="-1.68719">
        <ele>30</ele>
        <time>2023-11-04T13:21:01Z</time>
      </trkpt>
      <trkpt lat="47.19175" lon="-1.68683">
        <ele>34</ele>
        <time>2023-11-04T13:21:57Z</time>
      </trkpt>
      <trkpt lat="47.19167" lon="-1.68655">
        <ele>35</ele>
        <time>2023-11-04T13:22:24Z</time>
      </trkpt>
      <trkpt lat="47.1917" lon="-1.68645">
        <ele>35</ele>
        <time>2023-11-04T13:22:34Z</time>
      </trkpt>
      <trkpt lat="47.19157" lon="-1.68594">
        <ele>35</ele>
        <time>2023-11-04T13:23:24Z</time>
      </trkpt>
      <trkpt lat="47.19142" lon="-1.68548">
        <ele>35</ele>
        <time>2023-11-04T13:24:10Z</time>
      </trkpt>
      <trkpt lat="47.1913" lon="-1.68507">
        <ele>34</ele>
        <time>2023-11-04T13:24:50Z</time>
      </trkpt>
      <trkpt lat="47.19114" lon="-1.68465">
        <ele>35</ele>
        <time>2023-11-04T13:25:34Z</time>
      </trkpt>
      <trkpt lat="47.19108" lon="-1.68451">
        <ele>35</ele>
        <time>2023-11-04T13:25:49Z</time>
      </trkpt>
      <trkpt lat="47.19096" lon="-1.68417">
        <ele>35</ele>
        <time>2023-11-04T13:26:24Z</time>
      </trkpt>
      <trkpt lat="47.19097" lon="-1.6838">
        <ele>35</ele>
        <time>2023-11-04T13:26:57Z</time>
      </trkpt>
      <trkpt lat="47.19086" lon="-1.68375">
        <ele>36</ele>
        <time>2023-11-04T13:27:13Z</time>
      </trkpt>
      <trkpt lat="47.19059" lon="-1.6839">
        <ele>37</ele>
        <time>2023-11-04T13:27:51Z</time>
      </trkpt>
      <trkpt lat="47.19035" lon="-1.68396">
        <ele>38</ele>
        <time>2023-11-04T13:28:24Z</time>
      </trkpt>
      <trkpt lat="47.1903" lon="-1.68368">
        <ele>38</ele>
        <time>2023-11-04T13:28:50Z</time>
      </trkpt>
      <trkpt lat="47.19027" lon="-1.68331">
        <ele>38</ele>
        <time>2023-11-04T13:29:24Z</time>
      </trkpt>
      <trkpt lat="47.19029" lon="-1.68303">
        <ele>38</ele>
        <time>2023-11-04T13:29:49Z</time>
      </trkpt>
      <trkpt lat="47.1904" lon="-1.68291">
        <ele>37</ele>
        <time>2023-11-04T13:30:08Z</time>
      </trkpt>
      <trkpt lat="47.19058" lon="-1.68278">
        <ele>36</ele>
        <time>2023-11-04T13:30:34Z</time>
      </trkpt>
      <trkpt lat="47.19087" lon="-1.68259">
        <ele>34</ele>
        <time>2023-11-04T13:31:17Z</time>
      </trkpt>
      <trkpt lat="47.19092" lon="-1.68277">
        <ele>34</ele>
        <time>2023-11-04T13:31:34Z</time>
      </trkpt>
      <trkpt lat="47.19104" lon="-1.68269">
        <ele>32</ele>
        <time>2023-11-04T13:31:52Z</time>
      </trkpt>
      <trkpt lat="47.19122" lon="-1.68256">
        <ele>28</ele>
        <time>2023-11-04T13:32:19Z</time>
      </trkpt>
      <trkpt lat="47.19116" lon="-1.68231">
        <ele>28</ele>
        <time>2023-11-04T13:32:43Z</time>
      </trkpt>
      <trkpt lat="47.19119" lon="-1.68184">
        <ele>26</ele>
        <time>2023-11-04T13:33:26Z</time>
      </trkpt>
      <trkpt lat="47.19115" lon="-1.6815">
        <ele>25</ele>
        <time>2023-11-04T13:33:57Z</time>
      </trkpt>
      <trkpt lat="47.19102" lon="-1.68101">
        <ele>25</ele>
        <time>2023-11-04T13:34:45Z</time>
      </trkpt>
      <trkpt lat="47.19087" lon="-1.68061">
        <ele>25</ele>
        <time>2023-11-04T13:35:26Z</time>
      </trkpt>
      <trkpt lat="47.19074" lon="-1.68039">
        <ele>24</ele>
        <time>2023-11-04T13:35:52Z</time>
      </trkpt>
      <trkpt lat="47.19042" lon="-1.68029">
        <ele>27</ele>
        <time>2023-11-04T13:36:36Z</time>
      </trkpt>
      <trkpt lat="47.19015" lon="-1.68023">
        <ele>30</ele>
        <time>2023-11-04T13:37:13Z</time>
      </trkpt>
      <trkpt lat="47.18997" lon="-1.68031">
        <ele>33</ele>
        <time>2023-11-04T13:37:38Z</time>
      </trkpt>
      <trkpt lat="47.18987" lon="-1.68009">
        <ele>32</ele>
        <time>2023-11-04T13:38:02Z</time>
      </trkpt>
      <trkpt lat="47.18983" lon="-1.6799">
        <ele>31</ele>
        <time>2023-11-04T13:38:20Z</time>
      </trkpt>
      <trkpt lat="47.18973" lon="-1.67972">
        <ele>30</ele>
        <time>2023-11-04T13:38:41Z</time>
      </trkpt>
      <trkpt lat="47.18983" lon="-1.6796">
        <ele>29</ele>
        <time>2023-11-04T13:38:58Z</time>
      </trkpt>
      <trkpt lat="47.18985" lon="-1.67941">
        <ele>27</ele>
        <time>2023-11-04T13:39:15Z</time>
      </trkpt>
      <trkpt lat="47.18975" lon="-1.67908">
        <ele>26</ele>
        <time>2023-11-04T13:39:48Z</time>
      </trkpt>
      <trkpt lat="47.18955" lon="-1.67883">
        <ele>26</ele>
        <time>2023-11-04T13:40:23Z</time>
      </trkpt>
      <trkpt lat="47.18938" lon="-1.67875">
        <ele>28</ele>
        <time>2023-11-04T13:40:47Z</time>
      </trkpt>
      <trkpt lat="47.18918" lon="-1.67891">
        <ele>32</ele>
        <time>2023-11-04T13:41:17Z</time>
      </trkpt>
      <trkpt lat="47.18918" lon="-1.67862">
        <ele>30</ele>
        <time>2023-11-04T13:41:44Z</time>
      </trkpt>
      <trkpt lat="47.18914" lon="-1.67815">
        <ele>30</ele>
        <time>2023-11-04T13:42:27Z</time>
      </trkpt>
      <trkpt lat="47.18906" lon="-1.67774">
        <ele>31</ele>
        <time>2023-11-04T13:43:05Z</time>
      </trkpt>
      <trkpt lat="47.18906" lon="-1.67745">
        <ele>32</ele>
        <time>2023-11-04T13:43:32Z</time>
      </trkpt>
      <trkpt lat="47.18898" lon="-1.67719">
        <ele>32</ele>
        <time>2023-11-04T13:43:58Z</time>
      </trkpt>
      <trkpt lat="47.18886" lon="-1.67701">
        <ele>33</ele>
        <time>2023-11-04T13:44:20Z</time>
      </trkpt>
      <trkpt lat="47.18862" lon="-1.67701">
        <ele>34</ele>
        <time>2023-11-04T13:44:52Z</time>
      </trkpt>
      <trkpt lat="47.1884" lon="-1.67708">
        <ele>36</ele>
        <time>2023-11-04T13:45:22Z</time>
      </trkpt>
      <trkpt lat="47.18815" lon="-1.67718">
        <ele>37</ele>
        <time>2023-11-04T13:45:57Z</time>
      </trkpt>
      <trkpt lat="47.18814" lon="-1.67703">
        <ele>37</ele>
        <time>2023-11-04T13:46:11Z</time>
      </trkpt>
      <trkpt lat="47.18804" lon="-1.67675">
        <ele>37</ele>
        <time>2023-11-04T13:46:39Z</time>
      </trkpt>
      <trkpt lat="47.18796" lon="-1.67652">
        <ele>37</ele>
        <time>2023-11-04T13:47:03Z</time>
      </trkpt>
      <trkpt lat="47.18772" lon="-1.67626">
        <ele>38</ele>
        <time>2023-11-04T13:47:43Z</time>
      </trkpt>
      <trkpt lat="47.18761" lon="-1.67605">
        <ele>38</ele>
        <time>2023-11-04T13:48:07Z</time>
      </trkpt>
      <trkpt lat="47.1871" lon="-1.67621">
        <ele>38</ele>
        <time>2023-11-04T13:49:16Z</time>
      </trkpt>
      <trkpt lat="47.18687" lon="-1.67614">
        <ele>38</ele>
        <time>2023-11-04T13:49:48Z</time>
      </trkpt>
      <trkpt lat="47.18663" lon="-1.67585">
        <ele>39</ele>
        <time>2023-11-04T13:50:29Z</time>
      </trkpt>
      <trkpt lat="47.18635" lon="-1.67545">
        <ele>39</ele>
        <time>2023-11-04T13:51:21Z</time>
      </trkpt>
      <trkpt lat="47.18622" lon="-1.67514">
        <ele>38</ele>
        <time>2023-11-04T13:51:54Z</time>
      </trkpt>
      <trkpt lat="47.18609" lon="-1.6748">
        <ele>39</ele>
        <time>2023-11-04T13:52:29Z</time>
      </trkpt>
      <trkpt lat="47.18592" lon="-1.6743">
        <ele>40</ele>
        <time>2023-11-04T13:53:20Z</time>
      </trkpt>
      <trkpt lat="47.18576" lon="-1.67388">
        <ele>40</ele>
        <time>2023-11-04T13:54:04Z</time>
      </trkpt>
      <trkpt lat="47.18546" lon="-1.6741">
        <ele>40</ele>
        <time>2023-11-04T13:54:49Z</time>
      </trkpt>
      <trkpt lat="47.18523" lon="-1.67401">
        <ele>39</ele>
        <time>2023-11-04T13:55:20Z</time>
      </trkpt>
      <trkpt lat="47.1851" lon="-1.67429">
        <ele>38</ele>
        <time>2023-11-04T13:55:51Z</time>
      </trkpt>
      <trkpt lat="47.18433" lon="-1.67474">
        <ele>34</ele>
        <time>2023-11-04T13:57:42Z</time>
      </trkpt>
      <trkpt lat="47.18351" lon="-1.67528">
        <ele>31</ele>
        <time>2023-11-04T13:59:42Z</time>
      </trkpt>
      <trkpt lat="47.18373" lon="-1.67599">
        <ele>31</ele>
        <time>2023-11-04T14:00:52Z</time>
      </trkpt>
      <trkpt lat="47.18349" lon="-1.67609">
        <ele>31</ele>
        <time>2023-11-04T14:01:26Z</time>
      </trkpt>
    </trkseg>
  </trk>
  <trk>
    <name><![CDATA[LaMontagne_Coteaux_10.3km-7892356]]></name>
    <extensions>
      <line xmlns="http://www.topografix.com/GPX/gpx_style/0/2">
        <color>FF0000</color>
        <width>4</width>
      </line>
    </extensions>
    <trkseg>
      <trkpt lat="47.1834" lon="-1.67524">
        <ele>30</ele>
        <time>2023-11-04T12:25:08Z</time>
      </trkpt>
      <trkpt lat="47.18237" lon="-1.67584">
        <ele>31</ele>
        <time>2023-11-04T12:27:36Z</time>
      </trkpt>
      <trkpt lat="47.18226" lon="-1.67595">
        <ele>32</ele>
        <time>2023-11-04T12:27:54Z</time>
      </trkpt>
      <trkpt lat="47.18192" lon="-1.67471">
        <ele>34</ele>
        <time>2023-11-04T12:29:55Z</time>
      </trkpt>
      <trkpt lat="47.18165" lon="-1.67383">
        <ele>32</ele>
        <time>2023-11-04T12:31:22Z</time>
      </trkpt>
      <trkpt lat="47.18149" lon="-1.6732">
        <ele>32</ele>
        <time>2023-11-04T12:32:23Z</time>
      </trkpt>
      <trkpt lat="47.18114" lon="-1.67225">
        <ele>33</ele>
        <time>2023-11-04T12:34:01Z</time>
      </trkpt>
      <trkpt lat="47.18216" lon="-1.67141">
        <ele>32</ele>
        <time>2023-11-04T12:36:37Z</time>
      </trkpt>
      <trkpt lat="47.18334" lon="-1.67052">
        <ele>32</ele>
        <time>2023-11-04T12:39:34Z</time>
      </trkpt>
      <trkpt lat="47.18448" lon="-1.66969">
        <ele>33</ele>
        <time>2023-11-04T12:42:24Z</time>
      </trkpt>
      <trkpt lat="47.18531" lon="-1.66913">
        <ele>30</ele>
        <time>2023-11-04T12:44:26Z</time>
      </trkpt>
      <trkpt lat="47.18593" lon="-1.6687">
        <ele>27</ele>
        <time>2023-11-04T12:45:57Z</time>
      </trkpt>
      <trkpt lat="47.18619" lon="-1.6683">
        <ele>24</ele>
        <time>2023-11-04T12:46:48Z</time>
      </trkpt>
      <trkpt lat="47.18697" lon="-1.66739">
        <ele>15</ele>
        <time>2023-11-04T12:49:00Z</time>
      </trkpt>
      <trkpt lat="47.18728" lon="-1.66699">
        <ele>11</ele>
        <time>2023-11-04T12:49:55Z</time>
      </trkpt>
      <trkpt lat="47.18749" lon="-1.66686">
        <ele>9</ele>
        <time>2023-11-04T12:50:26Z</time>
      </trkpt>
      <trkpt lat="47.18797" lon="-1.66687">
        <ele>8</ele>
        <time>2023-11-04T12:51:30Z</time>
      </trkpt>
      <trkpt lat="47.18804" lon="-1.66738">
        <ele>8</ele>
        <time>2023-11-04T12:52:17Z</time>
      </trkpt>
      <trkpt lat="47.18813" lon="-1.66805">
        <ele>8</ele>
        <time>2023-11-04T12:53:19Z</time>
      </trkpt>
      <trkpt lat="47.18821" lon="-1.66822">
        <ele>7</ele>
        <time>2023-11-04T12:53:38Z</time>
      </trkpt>
      <trkpt lat="47.18834" lon="-1.669">
        <ele>11</ele>
        <time>2023-11-04T12:54:51Z</time>
      </trkpt>
      <trkpt lat="47.1885" lon="-1.66972">
        <ele>13</ele>
        <time>2023-11-04T12:55:59Z</time>
      </trkpt>
      <trkpt lat="47.18869" lon="-1.67089">
        <ele>15</ele>
        <time>2023-11-04T12:57:48Z</time>
      </trkpt>
      <trkpt lat="47.18873" lon="-1.67193">
        <ele>19</ele>
        <time>2023-11-04T12:59:23Z</time>
      </trkpt>
      <trkpt lat="47.18876" lon="-1.67214">
        <ele>20</ele>
        <time>2023-11-04T12:59:42Z</time>
      </trkpt>
      <trkpt lat="47.18852" lon="-1.67251">
        <ele>27</ele>
        <time>2023-11-04T13:00:29Z</time>
      </trkpt>
      <trkpt lat="47.18861" lon="-1.67308">
        <ele>28</ele>
        <time>2023-11-04T13:01:22Z</time>
      </trkpt>
      <trkpt lat="47.18894" lon="-1.67399">
        <ele>27</ele>
        <time>2023-11-04T13:02:55Z</time>
      </trkpt>
      <trkpt lat="47.18905" lon="-1.67443">
        <ele>27</ele>
        <time>2023-11-04T13:03:38Z</time>
      </trkpt>
      <trkpt lat="47.18913" lon="-1.67484">
        <ele>29</ele>
        <time>2023-11-04T13:04:17Z</time>
      </trkpt>
      <trkpt lat="47.18919" lon="-1.67537">
        <ele>29</ele>
        <time>2023-11-04T13:05:05Z</time>
      </trkpt>
      <trkpt lat="47.18927" lon="-1.67594">
        <ele>28</ele>
        <time>2023-11-04T13:05:58Z</time>
      </trkpt>
      <trkpt lat="47.1893" lon="-1.67624">
        <ele>27</ele>
        <time>2023-11-04T13:06:26Z</time>
      </trkpt>
      <trkpt lat="47.18937" lon="-1.67653">
        <ele>26</ele>
        <time>2023-11-04T13:06:53Z</time>
      </trkpt>
      <trkpt lat="47.18942" lon="-1.6769">
        <ele>25</ele>
        <time>2023-11-04T13:07:28Z</time>
      </trkpt>
      <trkpt lat="47.18928" lon="-1.67717">
        <ele>28</ele>
        <time>2023-11-04T13:07:59Z</time>
      </trkpt>
      <trkpt lat="47.18914" lon="-1.67736">
        <ele>31</ele>
        <time>2023-11-04T13:08:24Z</time>
      </trkpt>
      <trkpt lat="47.18913" lon="-1.67765">
        <ele>31</ele>
        <time>2023-11-04T13:08:50Z</time>
      </trkpt>
      <trkpt lat="47.18919" lon="-1.67824">
        <ele>29</ele>
        <time>2023-11-04T13:09:44Z</time>
      </trkpt>
      <trkpt lat="47.18918" lon="-1.67866">
        <ele>30</ele>
        <time>2023-11-04T13:10:22Z</time>
      </trkpt>
      <trkpt lat="47.18916" lon="-1.67897">
        <ele>32</ele>
        <time>2023-11-04T13:10:51Z</time>
      </trkpt>
      <trkpt lat="47.18947" lon="-1.67877">
        <ele>27</ele>
        <time>2023-11-04T13:11:36Z</time>
      </trkpt>
      <trkpt lat="47.18971" lon="-1.67894">
        <ele>25</ele>
        <time>2023-11-04T13:12:11Z</time>
      </trkpt>
      <trkpt lat="47.18981" lon="-1.67918">
        <ele>26</ele>
        <time>2023-11-04T13:12:37Z</time>
      </trkpt>
      <trkpt lat="47.18991" lon="-1.67941">
        <ele>27</ele>
        <time>2023-11-04T13:13:02Z</time>
      </trkpt>
      <trkpt lat="47.18977" lon="-1.67966">
        <ele>30</ele>
        <time>2023-11-04T13:13:31Z</time>
      </trkpt>
      <trkpt lat="47.18958" lon="-1.67985">
        <ele>32</ele>
        <time>2023-11-04T13:14:02Z</time>
      </trkpt>
      <trkpt lat="47.18977" lon="-1.68028">
        <ele>33</ele>
        <time>2023-11-04T13:14:48Z</time>
      </trkpt>
      <trkpt lat="47.18987" lon="-1.6804">
        <ele>33</ele>
        <time>2023-11-04T13:15:05Z</time>
      </trkpt>
      <trkpt lat="47.19008" lon="-1.68018">
        <ele>31</ele>
        <time>2023-11-04T13:15:40Z</time>
      </trkpt>
      <trkpt lat="47.19042" lon="-1.68024">
        <ele>26</ele>
        <time>2023-11-04T13:16:26Z</time>
      </trkpt>
      <trkpt lat="47.19075" lon="-1.68041">
        <ele>24</ele>
        <time>2023-11-04T13:17:12Z</time>
      </trkpt>
      <trkpt lat="47.19096" lon="-1.68078">
        <ele>25</ele>
        <time>2023-11-04T13:17:56Z</time>
      </trkpt>
      <trkpt lat="47.19112" lon="-1.68154">
        <ele>26</ele>
        <time>2023-11-04T13:19:08Z</time>
      </trkpt>
      <trkpt lat="47.19119" lon="-1.68193">
        <ele>26</ele>
        <time>2023-11-04T13:19:45Z</time>
      </trkpt>
      <trkpt lat="47.19117" lon="-1.68243">
        <ele>29</ele>
        <time>2023-11-04T13:20:30Z</time>
      </trkpt>
      <trkpt lat="47.19124" lon="-1.68264">
        <ele>28</ele>
        <time>2023-11-04T13:20:51Z</time>
      </trkpt>
      <trkpt lat="47.19101" lon="-1.68271">
        <ele>32</ele>
        <time>2023-11-04T13:21:23Z</time>
      </trkpt>
      <trkpt lat="47.19084" lon="-1.68274">
        <ele>35</ele>
        <time>2023-11-04T13:21:46Z</time>
      </trkpt>
      <trkpt lat="47.19033" lon="-1.68305">
        <ele>37</ele>
        <time>2023-11-04T13:22:59Z</time>
      </trkpt>
      <trkpt lat="47.19034" lon="-1.68399">
        <ele>38</ele>
        <time>2023-11-04T13:24:24Z</time>
      </trkpt>
      <trkpt lat="47.19094" lon="-1.68359">
        <ele>35</ele>
        <time>2023-11-04T13:25:52Z</time>
      </trkpt>
      <trkpt lat="47.19097" lon="-1.68424">
        <ele>35</ele>
        <time>2023-11-04T13:26:51Z</time>
      </trkpt>
      <trkpt lat="47.19146" lon="-1.68549">
        <ele>34</ele>
        <time>2023-11-04T13:29:02Z</time>
      </trkpt>
      <trkpt lat="47.1916" lon="-1.68597">
        <ele>35</ele>
        <time>2023-11-04T13:29:50Z</time>
      </trkpt>
      <trkpt lat="47.1917" lon="-1.68648">
        <ele>35</ele>
        <time>2023-11-04T13:30:38Z</time>
      </trkpt>
      <trkpt lat="47.19187" lon="-1.68688">
        <ele>32</ele>
        <time>2023-11-04T13:31:21Z</time>
      </trkpt>
      <trkpt lat="47.19203" lon="-1.68713">
        <ele>31</ele>
        <time>2023-11-04T13:31:52Z</time>
      </trkpt>
      <trkpt lat="47.19229" lon="-1.68721">
        <ele>29</ele>
        <time>2023-11-04T13:32:27Z</time>
      </trkpt>
      <trkpt lat="47.19233" lon="-1.68754">
        <ele>29</ele>
        <time>2023-11-04T13:32:58Z</time>
      </trkpt>
      <trkpt lat="47.1924" lon="-1.6879">
        <ele>30</ele>
        <time>2023-11-04T13:33:31Z</time>
      </trkpt>
      <trkpt lat="47.19239" lon="-1.68834">
        <ele>31</ele>
        <time>2023-11-04T13:34:11Z</time>
      </trkpt>
      <trkpt lat="47.1925" lon="-1.6885">
        <ele>30</ele>
        <time>2023-11-04T13:34:32Z</time>
      </trkpt>
      <trkpt lat="47.19296" lon="-1.68939">
        <ele>29</ele>
        <time>2023-11-04T13:36:13Z</time>
      </trkpt>
      <trkpt lat="47.1932" lon="-1.68986">
        <ele>28</ele>
        <time>2023-11-04T13:37:07Z</time>
      </trkpt>
      <trkpt lat="47.19336" lon="-1.6901">
        <ele>27</ele>
        <time>2023-11-04T13:37:37Z</time>
      </trkpt>
      <trkpt lat="47.19345" lon="-1.69023">
        <ele>25</ele>
        <time>2023-11-04T13:37:54Z</time>
      </trkpt>
      <trkpt lat="47.19352" lon="-1.69062">
        <ele>23</ele>
        <time>2023-11-04T13:38:31Z</time>
      </trkpt>
      <trkpt lat="47.19376" lon="-1.69138">
        <ele>19</ele>
        <time>2023-11-04T13:39:47Z</time>
      </trkpt>
      <trkpt lat="47.19386" lon="-1.69189">
        <ele>19</ele>
        <time>2023-11-04T13:40:35Z</time>
      </trkpt>
      <trkpt lat="47.19406" lon="-1.69241">
        <ele>18</ele>
        <time>2023-11-04T13:41:29Z</time>
      </trkpt>
      <trkpt lat="47.19413" lon="-1.69289">
        <ele>16</ele>
        <time>2023-11-04T13:42:13Z</time>
      </trkpt>
      <trkpt lat="47.19408" lon="-1.69315">
        <ele>16</ele>
        <time>2023-11-04T13:42:38Z</time>
      </trkpt>
      <trkpt lat="47.1939" lon="-1.69361">
        <ele>15</ele>
        <time>2023-11-04T13:43:26Z</time>
      </trkpt>
      <trkpt lat="47.19371" lon="-1.69384">
        <ele>15</ele>
        <time>2023-11-04T13:43:59Z</time>
      </trkpt>
      <trkpt lat="47.1934" lon="-1.69408">
        <ele>15</ele>
        <time>2023-11-04T13:44:46Z</time>
      </trkpt>
      <trkpt lat="47.19303" lon="-1.69423">
        <ele>16</ele>
        <time>2023-11-04T13:45:37Z</time>
      </trkpt>
      <trkpt lat="47.19286" lon="-1.69457">
        <ele>16</ele>
        <time>2023-11-04T13:46:15Z</time>
      </trkpt>
      <trkpt lat="47.19289" lon="-1.69475">
        <ele>15</ele>
        <time>2023-11-04T13:46:32Z</time>
      </trkpt>
      <trkpt lat="47.19314" lon="-1.69459">
        <ele>15</ele>
        <time>2023-11-04T13:47:08Z</time>
      </trkpt>
      <trkpt lat="47.19342" lon="-1.69467">
        <ele>13</ele>
        <time>2023-11-04T13:47:46Z</time>
      </trkpt>
      <trkpt lat="47.19399" lon="-1.69451">
        <ele>12</ele>
        <time>2023-11-04T13:49:04Z</time>
      </trkpt>
      <trkpt lat="47.19434" lon="-1.6943">
        <ele>9</ele>
        <time>2023-11-04T13:49:54Z</time>
      </trkpt>
      <trkpt lat="47.19457" lon="-1.6942">
        <ele>7</ele>
        <time>2023-11-04T13:50:26Z</time>
      </trkpt>
      <trkpt lat="47.19485" lon="-1.69413">
        <ele>6</ele>
        <time>2023-11-04T13:51:04Z</time>
      </trkpt>
      <trkpt lat="47.19501" lon="-1.69432">
        <ele>6</ele>
        <time>2023-11-04T13:51:32Z</time>
      </trkpt>
      <trkpt lat="47.19461" lon="-1.69456">
        <ele>10</ele>
        <time>2023-11-04T13:52:29Z</time>
      </trkpt>
      <trkpt lat="47.1944" lon="-1.69481">
        <ele>13</ele>
        <time>2023-11-04T13:53:05Z</time>
      </trkpt>
      <trkpt lat="47.1942" lon="-1.69491">
        <ele>15</ele>
        <time>2023-11-04T13:53:34Z</time>
      </trkpt>
      <trkpt lat="47.19403" lon="-1.69516">
        <ele>17</ele>
        <time>2023-11-04T13:54:06Z</time>
      </trkpt>
      <trkpt lat="47.19353" lon="-1.69504">
        <ele>14</ele>
        <time>2023-11-04T13:55:13Z</time>
      </trkpt>
      <trkpt lat="47.19289" lon="-1.6952">
        <ele>14</ele>
        <time>2023-11-04T13:56:40Z</time>
      </trkpt>
      <trkpt lat="47.1925" lon="-1.69558">
        <ele>12</ele>
        <time>2023-11-04T13:57:42Z</time>
      </trkpt>
      <trkpt lat="47.19218" lon="-1.69594">
        <ele>12</ele>
        <time>2023-11-04T13:58:36Z</time>
      </trkpt>
      <trkpt lat="47.19205" lon="-1.69623">
        <ele>12</ele>
        <time>2023-11-04T13:59:07Z</time>
      </trkpt>
      <trkpt lat="47.19201" lon="-1.69676">
        <ele>12</ele>
        <time>2023-11-04T13:59:56Z</time>
      </trkpt>
      <trkpt lat="47.1919" lon="-1.69776">
        <ele>11</ele>
        <time>2023-11-04T14:01:28Z</time>
      </trkpt>
      <trkpt lat="47.19183" lon="-1.69847">
        <ele>10</ele>
        <time>2023-11-04T14:02:33Z</time>
      </trkpt>
      <trkpt lat="47.19174" lon="-1.69944">
        <ele>10</ele>
        <time>2023-11-04T14:04:02Z</time>
      </trkpt>
      <trkpt lat="47.19113" lon="-1.69942">
        <ele>9</ele>
        <time>2023-11-04T14:05:23Z</time>
      </trkpt>
      <trkpt lat="47.19089" lon="-1.69925">
        <ele>10</ele>
        <time>2023-11-04T14:05:59Z</time>
      </trkpt>
      <trkpt lat="47.19057" lon="-1.69876">
        <ele>13</ele>
        <time>2023-11-04T14:07:00Z</time>
      </trkpt>
      <trkpt lat="47.19042" lon="-1.69824">
        <ele>15</ele>
        <time>2023-11-04T14:07:51Z</time>
      </trkpt>
      <trkpt lat="47.1904" lon="-1.69771">
        <ele>17</ele>
        <time>2023-11-04T14:08:40Z</time>
      </trkpt>
      <trkpt lat="47.19039" lon="-1.69699">
        <ele>20</ele>
        <time>2023-11-04T14:09:45Z</time>
      </trkpt>
      <trkpt lat="47.19058" lon="-1.69659">
        <ele>21</ele>
        <time>2023-11-04T14:10:29Z</time>
      </trkpt>
      <trkpt lat="47.19053" lon="-1.69582">
        <ele>21</ele>
        <time>2023-11-04T14:11:39Z</time>
      </trkpt>
      <trkpt lat="47.18988" lon="-1.69544">
        <ele>24</ele>
        <time>2023-11-04T14:13:13Z</time>
      </trkpt>
      <trkpt lat="47.18952" lon="-1.69527">
        <ele>24</ele>
        <time>2023-11-04T14:14:03Z</time>
      </trkpt>
      <trkpt lat="47.1891" lon="-1.69503">
        <ele>22</ele>
        <time>2023-11-04T14:15:03Z</time>
      </trkpt>
      <trkpt lat="47.18861" lon="-1.69476">
        <ele>24</ele>
        <time>2023-11-04T14:16:13Z</time>
      </trkpt>
      <trkpt lat="47.18834" lon="-1.69444">
        <ele>24</ele>
        <time>2023-11-04T14:16:59Z</time>
      </trkpt>
      <trkpt lat="47.18839" lon="-1.694">
        <ele>23</ele>
        <time>2023-11-04T14:17:40Z</time>
      </trkpt>
      <trkpt lat="47.18868" lon="-1.69381">
        <ele>23</ele>
        <time>2023-11-04T14:18:22Z</time>
      </trkpt>
      <trkpt lat="47.18873" lon="-1.69343">
        <ele>22</ele>
        <time>2023-11-04T14:18:57Z</time>
      </trkpt>
      <trkpt lat="47.18881" lon="-1.69314">
        <ele>21</ele>
        <time>2023-11-04T14:19:26Z</time>
      </trkpt>
      <trkpt lat="47.1888" lon="-1.69284">
        <ele>21</ele>
        <time>2023-11-04T14:19:53Z</time>
      </trkpt>
      <trkpt lat="47.18914" lon="-1.69264">
        <ele>22</ele>
        <time>2023-11-04T14:20:42Z</time>
      </trkpt>
      <trkpt lat="47.18951" lon="-1.69244">
        <ele>24</ele>
        <time>2023-11-04T14:21:34Z</time>
      </trkpt>
      <trkpt lat="47.18984" lon="-1.69229">
        <ele>26</ele>
        <time>2023-11-04T14:22:20Z</time>
      </trkpt>
      <trkpt lat="47.18955" lon="-1.69168">
        <ele>25</ele>
        <time>2023-11-04T14:23:28Z</time>
      </trkpt>
      <trkpt lat="47.18924" lon="-1.69104">
        <ele>23</ele>
        <time>2023-11-04T14:24:39Z</time>
      </trkpt>
      <trkpt lat="47.18904" lon="-1.6907">
        <ele>22</ele>
        <time>2023-11-04T14:25:20Z</time>
      </trkpt>
      <trkpt lat="47.18891" lon="-1.69024">
        <ele>22</ele>
        <time>2023-11-04T14:26:05Z</time>
      </trkpt>
      <trkpt lat="47.1883" lon="-1.69029">
        <ele>18</ele>
        <time>2023-11-04T14:27:27Z</time>
      </trkpt>
      <trkpt lat="47.18816" lon="-1.69034">
        <ele>18</ele>
        <time>2023-11-04T14:27:46Z</time>
      </trkpt>
      <trkpt lat="47.18785" lon="-1.68936">
        <ele>18</ele>
        <time>2023-11-04T14:29:24Z</time>
      </trkpt>
      <trkpt lat="47.18754" lon="-1.68887">
        <ele>18</ele>
        <time>2023-11-04T14:30:25Z</time>
      </trkpt>
      <trkpt lat="47.1872" lon="-1.68807">
        <ele>20</ele>
        <time>2023-11-04T14:31:50Z</time>
      </trkpt>
      <trkpt lat="47.18702" lon="-1.6877">
        <ele>21</ele>
        <time>2023-11-04T14:32:31Z</time>
      </trkpt>
      <trkpt lat="47.18662" lon="-1.68782">
        <ele>21</ele>
        <time>2023-11-04T14:33:26Z</time>
      </trkpt>
      <trkpt lat="47.18633" lon="-1.68789">
        <ele>21</ele>
        <time>2023-11-04T14:34:05Z</time>
      </trkpt>
      <trkpt lat="47.1862" lon="-1.68792">
        <ele>22</ele>
        <time>2023-11-04T14:34:23Z</time>
      </trkpt>
      <trkpt lat="47.186" lon="-1.68794">
        <ele>22</ele>
        <time>2023-11-04T14:34:49Z</time>
      </trkpt>
      <trkpt lat="47.18576" lon="-1.68798">
        <ele>22</ele>
        <time>2023-11-04T14:35:22Z</time>
      </trkpt>
      <trkpt lat="47.18558" lon="-1.68799">
        <ele>22</ele>
        <time>2023-11-04T14:35:46Z</time>
      </trkpt>
      <trkpt lat="47.18537" lon="-1.68802">
        <ele>22</ele>
        <time>2023-11-04T14:36:14Z</time>
      </trkpt>
      <trkpt lat="47.18505" lon="-1.68802">
        <ele>23</ele>
        <time>2023-11-04T14:36:57Z</time>
      </trkpt>
      <trkpt lat="47.18493" lon="-1.68778">
        <ele>23</ele>
        <time>2023-11-04T14:37:24Z</time>
      </trkpt>
      <trkpt lat="47.18473" lon="-1.68723">
        <ele>23</ele>
        <time>2023-11-04T14:38:20Z</time>
      </trkpt>
      <trkpt lat="47.18436" lon="-1.68626">
        <ele>25</ele>
        <time>2023-11-04T14:40:01Z</time>
      </trkpt>
      <trkpt lat="47.18416" lon="-1.68559">
        <ele>28</ele>
        <time>2023-11-04T14:41:07Z</time>
      </trkpt>
      <trkpt lat="47.18414" lon="-1.68491">
        <ele>29</ele>
        <time>2023-11-04T14:42:09Z</time>
      </trkpt>
      <trkpt lat="47.18394" lon="-1.68498">
        <ele>28</ele>
        <time>2023-11-04T14:42:37Z</time>
      </trkpt>
      <trkpt lat="47.18375" lon="-1.6852">
        <ele>28</ele>
        <time>2023-11-04T14:43:09Z</time>
      </trkpt>
      <trkpt lat="47.1836" lon="-1.68537">
        <ele>27</ele>
        <time>2023-11-04T14:43:34Z</time>
      </trkpt>
      <trkpt lat="47.18344" lon="-1.68548">
        <ele>27</ele>
        <time>2023-11-04T14:43:58Z</time>
      </trkpt>
      <trkpt lat="47.18355" lon="-1.68584">
        <ele>27</ele>
        <time>2023-11-04T14:44:33Z</time>
      </trkpt>
      <trkpt lat="47.1836" lon="-1.6865">
        <ele>26</ele>
        <time>2023-11-04T14:45:34Z</time>
      </trkpt>
      <trkpt lat="47.18384" lon="-1.68657">
        <ele>25</ele>
        <time>2023-11-04T14:46:06Z</time>
      </trkpt>
      <trkpt lat="47.18396" lon="-1.68664">
        <ele>25</ele>
        <time>2023-11-04T14:46:24Z</time>
      </trkpt>
      <trkpt lat="47.18402" lon="-1.68685">
        <ele>24</ele>
        <time>2023-11-04T14:46:44Z</time>
      </trkpt>
      <trkpt lat="47.18405" lon="-1.68715">
        <ele>24</ele>
        <time>2023-11-04T14:47:12Z</time>
      </trkpt>
      <trkpt lat="47.18398" lon="-1.68733">
        <ele>24</ele>
        <time>2023-11-04T14:47:31Z</time>
      </trkpt>
      <trkpt lat="47.1837" lon="-1.68733">
        <ele>23</ele>
        <time>2023-11-04T14:48:08Z</time>
      </trkpt>
      <trkpt lat="47.18357" lon="-1.68735">
        <ele>23</ele>
        <time>2023-11-04T14:48:25Z</time>
      </trkpt>
      <trkpt lat="47.18355" lon="-1.68738">
        <ele>23</ele>
        <time>2023-11-04T14:48:29Z</time>
      </trkpt>
      <trkpt lat="47.1835" lon="-1.68841">
        <ele>24</ele>
        <time>2023-11-04T14:50:03Z</time>
      </trkpt>
      <trkpt lat="47.18352" lon="-1.68942">
        <ele>26</ele>
        <time>2023-11-04T14:51:34Z</time>
      </trkpt>
      <trkpt lat="47.18357" lon="-1.68969">
        <ele>26</ele>
        <time>2023-11-04T14:52:00Z</time>
      </trkpt>
      <trkpt lat="47.184" lon="-1.68955">
        <ele>26</ele>
        <time>2023-11-04T14:52:59Z</time>
      </trkpt>
      <trkpt lat="47.18438" lon="-1.68958">
        <ele>27</ele>
        <time>2023-11-04T14:53:49Z</time>
      </trkpt>
      <trkpt lat="47.18477" lon="-1.68952">
        <ele>27</ele>
        <time>2023-11-04T14:54:42Z</time>
      </trkpt>
      <trkpt lat="47.18473" lon="-1.69002">
        <ele>28</ele>
        <time>2023-11-04T14:55:27Z</time>
      </trkpt>
      <trkpt lat="47.1848" lon="-1.69044">
        <ele>27</ele>
        <time>2023-11-04T14:56:07Z</time>
      </trkpt>
      <trkpt lat="47.18479" lon="-1.69059">
        <ele>27</ele>
        <time>2023-11-04T14:56:20Z</time>
      </trkpt>
      <trkpt lat="47.1845" lon="-1.6908">
        <ele>28</ele>
        <time>2023-11-04T14:57:03Z</time>
      </trkpt>
      <trkpt lat="47.18413" lon="-1.69104">
        <ele>29</ele>
        <time>2023-11-04T14:57:57Z</time>
      </trkpt>
      <trkpt lat="47.18409" lon="-1.6921">
        <ele>29</ele>
        <time>2023-11-04T14:59:34Z</time>
      </trkpt>
      <trkpt lat="47.18407" lon="-1.69219">
        <ele>29</ele>
        <time>2023-11-04T14:59:42Z</time>
      </trkpt>
      <trkpt lat="47.18404" lon="-1.69246">
        <ele>29</ele>
        <time>2023-11-04T15:00:07Z</time>
      </trkpt>
      <trkpt lat="47.18409" lon="-1.69267">
        <ele>29</ele>
        <time>2023-11-04T15:00:27Z</time>
      </trkpt>
      <trkpt lat="47.18408" lon="-1.69296">
        <ele>30</ele>
        <time>2023-11-04T15:00:54Z</time>
      </trkpt>
      <trkpt lat="47.18358" lon="-1.6929">
        <ele>30</ele>
        <time>2023-11-04T15:02:00Z</time>
      </trkpt>
      <trkpt lat="47.18328" lon="-1.69281">
        <ele>30</ele>
        <time>2023-11-04T15:02:41Z</time>
      </trkpt>
      <trkpt lat="47.18284" lon="-1.69263">
        <ele>30</ele>
        <time>2023-11-04T15:03:42Z</time>
      </trkpt>
      <trkpt lat="47.18236" lon="-1.69251">
        <ele>31</ele>
        <time>2023-11-04T15:04:47Z</time>
      </trkpt>
      <trkpt lat="47.18156" lon="-1.69245">
        <ele>30</ele>
        <time>2023-11-04T15:06:34Z</time>
      </trkpt>
      <trkpt lat="47.18087" lon="-1.69251">
        <ele>30</ele>
        <time>2023-11-04T15:08:06Z</time>
      </trkpt>
      <trkpt lat="47.18045" lon="-1.69236">
        <ele>31</ele>
        <time>2023-11-04T15:09:04Z</time>
      </trkpt>
      <trkpt lat="47.18024" lon="-1.69078">
        <ele>27</ele>
        <time>2023-11-04T15:11:30Z</time>
      </trkpt>
      <trkpt lat="47.18016" lon="-1.69027">
        <ele>26</ele>
        <time>2023-11-04T15:12:18Z</time>
      </trkpt>
      <trkpt lat="47.17966" lon="-1.69011">
        <ele>26</ele>
        <time>2023-11-04T15:13:26Z</time>
      </trkpt>
      <trkpt lat="47.17888" lon="-1.68973">
        <ele>27</ele>
        <time>2023-11-04T15:15:16Z</time>
      </trkpt>
      <trkpt lat="47.17843" lon="-1.68877">
        <ele>29</ele>
        <time>2023-11-04T15:17:01Z</time>
      </trkpt>
      <trkpt lat="47.17801" lon="-1.68806">
        <ele>30</ele>
        <time>2023-11-04T15:18:27Z</time>
      </trkpt>
      <trkpt lat="47.17742" lon="-1.68716">
        <ele>29</ele>
        <time>2023-11-04T15:20:20Z</time>
      </trkpt>
      <trkpt lat="47.17702" lon="-1.68633">
        <ele>31</ele>
        <time>2023-11-04T15:21:52Z</time>
      </trkpt>
      <trkpt lat="47.17712" lon="-1.68542">
        <ele>32</ele>
        <time>2023-11-04T15:23:16Z</time>
      </trkpt>
      <trkpt lat="47.17722" lon="-1.68415">
        <ele>33</ele>
        <time>2023-11-04T15:25:12Z</time>
      </trkpt>
      <trkpt lat="47.17739" lon="-1.68268">
        <ele>34</ele>
        <time>2023-11-04T15:27:27Z</time>
      </trkpt>
      <trkpt lat="47.17773" lon="-1.6816">
        <ele>36</ele>
        <time>2023-11-04T15:29:15Z</time>
      </trkpt>
      <trkpt lat="47.17807" lon="-1.68081">
        <ele>35</ele>
        <time>2023-11-04T15:30:40Z</time>
      </trkpt>
      <trkpt lat="47.17837" lon="-1.68024">
        <ele>34</ele>
        <time>2023-11-04T15:31:45Z</time>
      </trkpt>
      <trkpt lat="47.17847" lon="-1.67965">
        <ele>34</ele>
        <time>2023-11-04T15:32:41Z</time>
      </trkpt>
      <trkpt lat="47.17933" lon="-1.67918">
        <ele>34</ele>
        <time>2023-11-04T15:34:43Z</time>
      </trkpt>
      <trkpt lat="47.17972" lon="-1.67901">
        <ele>33</ele>
        <time>2023-11-04T15:35:37Z</time>
      </trkpt>
      <trkpt lat="47.18003" lon="-1.67882">
        <ele>33</ele>
        <time>2023-11-04T15:36:22Z</time>
      </trkpt>
      <trkpt lat="47.1802" lon="-1.6788">
        <ele>33</ele>
        <time>2023-11-04T15:36:45Z</time>
      </trkpt>
      <trkpt lat="47.18046" lon="-1.67874">
        <ele>33</ele>
        <time>2023-11-04T15:37:20Z</time>
      </trkpt>
      <trkpt lat="47.18105" lon="-1.67872">
        <ele>32</ele>
        <time>2023-11-04T15:38:39Z</time>
      </trkpt>
      <trkpt lat="47.18161" lon="-1.67876">
        <ele>32</ele>
        <time>2023-11-04T15:39:53Z</time>
      </trkpt>
      <trkpt lat="47.18222" lon="-1.67866">
        <ele>32</ele>
        <time>2023-11-04T15:41:15Z</time>
      </trkpt>
      <trkpt lat="47.1827" lon="-1.6787">
        <ele>32</ele>
        <time>2023-11-04T15:42:20Z</time>
      </trkpt>
      <trkpt lat="47.18325" lon="-1.67862">
        <ele>33</ele>
        <time>2023-11-04T15:43:33Z</time>
      </trkpt>
      <trkpt lat="47.18363" lon="-1.67835">
        <ele>33</ele>
        <time>2023-11-04T15:44:30Z</time>
      </trkpt>
      <trkpt lat="47.18395" lon="-1.6782">
        <ele>32</ele>
        <time>2023-11-04T15:45:14Z</time>
      </trkpt>
      <trkpt lat="47.18426" lon="-1.67804">
        <ele>32</ele>
        <time>2023-11-04T15:45:58Z</time>
      </trkpt>
      <trkpt lat="47.18416" lon="-1.6775">
        <ele>31</ele>
        <time>2023-11-04T15:46:49Z</time>
      </trkpt>
      <trkpt lat="47.18409" lon="-1.67705">
        <ele>31</ele>
        <time>2023-11-04T15:47:31Z</time>
      </trkpt>
      <trkpt lat="47.18381" lon="-1.67647">
        <ele>31</ele>
        <time>2023-11-04T15:48:35Z</time>
      </trkpt>
      <trkpt lat="47.18353" lon="-1.67529">
        <ele>31</ele>
        <time>2023-11-04T15:50:29Z</time>
      </trkpt>
    </trkseg>
  </trk>
  <trk>
    <name><![CDATA[LaMontagne_CoteauxRocheBallue_10km-7892347]]></name>
    <extensions>
      <line xmlns="http://www.topografix.com/GPX/gpx_style/0/2">
        <color>00FFFF</color>
        <width>4</width>
      </line>
    </extensions>
    <trkseg>
      <trkpt lat="47.17691" lon="-1.677">
        <ele>34</ele>
        <time>2023-11-04T12:24:55Z</time>
      </trkpt>
      <trkpt lat="47.17628" lon="-1.67432">
        <ele>36</ele>
        <time>2023-11-04T12:29:12Z</time>
      </trkpt>
      <trkpt lat="47.17674" lon="-1.6739">
        <ele>35</ele>
        <time>2023-11-04T12:30:24Z</time>
      </trkpt>
      <trkpt lat="47.17802" lon="-1.67201">
        <ele>34</ele>
        <time>2023-11-04T12:34:26Z</time>
      </trkpt>
      <trkpt lat="47.17615" lon="-1.66886">
        <ele>34</ele>
        <time>2023-11-04T12:40:46Z</time>
      </trkpt>
      <trkpt lat="47.17822" lon="-1.66719">
        <ele>36</ele>
        <time>2023-11-04T12:46:01Z</time>
      </trkpt>
      <trkpt lat="47.17772" lon="-1.66588">
        <ele>35</ele>
        <time>2023-11-04T12:48:17Z</time>
      </trkpt>
      <trkpt lat="47.1772" lon="-1.66378">
        <ele>36</ele>
        <time>2023-11-04T12:51:40Z</time>
      </trkpt>
      <trkpt lat="47.17676" lon="-1.6616">
        <ele>33</ele>
        <time>2023-11-04T12:55:06Z</time>
      </trkpt>
      <trkpt lat="47.17669" lon="-1.66056">
        <ele>32</ele>
        <time>2023-11-04T12:56:41Z</time>
      </trkpt>
      <trkpt lat="47.17912" lon="-1.6584">
        <ele>39</ele>
        <time>2023-11-04T13:03:00Z</time>
      </trkpt>
      <trkpt lat="47.18007" lon="-1.65748">
        <ele>40</ele>
        <time>2023-11-04T13:05:32Z</time>
      </trkpt>
      <trkpt lat="47.18174" lon="-1.65538">
        <ele>33</ele>
        <time>2023-11-04T13:10:25Z</time>
      </trkpt>
      <trkpt lat="47.18127" lon="-1.65491">
        <ele>33</ele>
        <time>2023-11-04T13:11:41Z</time>
      </trkpt>
      <trkpt lat="47.18107" lon="-1.65422">
        <ele>31</ele>
        <time>2023-11-04T13:12:49Z</time>
      </trkpt>
      <trkpt lat="47.18078" lon="-1.65329">
        <ele>31</ele>
        <time>2023-11-04T13:14:21Z</time>
      </trkpt>
      <trkpt lat="47.18142" lon="-1.65278">
        <ele>30</ele>
        <time>2023-11-04T13:15:59Z</time>
      </trkpt>
      <trkpt lat="47.18169" lon="-1.65201">
        <ele>26</ele>
        <time>2023-11-04T13:17:17Z</time>
      </trkpt>
      <trkpt lat="47.18172" lon="-1.65118">
        <ele>22</ele>
        <time>2023-11-04T13:18:33Z</time>
      </trkpt>
      <trkpt lat="47.18244" lon="-1.65059">
        <ele>16</ele>
        <time>2023-11-04T13:20:23Z</time>
      </trkpt>
      <trkpt lat="47.1835" lon="-1.65047">
        <ele>13</ele>
        <time>2023-11-04T13:22:44Z</time>
      </trkpt>
      <trkpt lat="47.18406" lon="-1.65095">
        <ele>9</ele>
        <time>2023-11-04T13:24:11Z</time>
      </trkpt>
      <trkpt lat="47.18433" lon="-1.65161">
        <ele>7</ele>
        <time>2023-11-04T13:25:21Z</time>
      </trkpt>
      <trkpt lat="47.18448" lon="-1.65261">
        <ele>6</ele>
        <time>2023-11-04T13:26:54Z</time>
      </trkpt>
      <trkpt lat="47.18457" lon="-1.65341">
        <ele>7</ele>
        <time>2023-11-04T13:28:07Z</time>
      </trkpt>
      <trkpt lat="47.18465" lon="-1.65401">
        <ele>7</ele>
        <time>2023-11-04T13:29:03Z</time>
      </trkpt>
      <trkpt lat="47.18442" lon="-1.65459">
        <ele>11</ele>
        <time>2023-11-04T13:30:04Z</time>
      </trkpt>
      <trkpt lat="47.18499" lon="-1.65523">
        <ele>12</ele>
        <time>2023-11-04T13:31:39Z</time>
      </trkpt>
      <trkpt lat="47.18534" lon="-1.65617">
        <ele>17</ele>
        <time>2023-11-04T13:33:16Z</time>
      </trkpt>
      <trkpt lat="47.18611" lon="-1.65734">
        <ele>14</ele>
        <time>2023-11-04T13:35:44Z</time>
      </trkpt>
      <trkpt lat="47.18661" lon="-1.65845">
        <ele>15</ele>
        <time>2023-11-04T13:37:45Z</time>
      </trkpt>
      <trkpt lat="47.18749" lon="-1.66026">
        <ele>15</ele>
        <time>2023-11-04T13:41:07Z</time>
      </trkpt>
      <trkpt lat="47.18782" lon="-1.66112">
        <ele>13</ele>
        <time>2023-11-04T13:42:36Z</time>
      </trkpt>
      <trkpt lat="47.18779" lon="-1.66179">
        <ele>14</ele>
        <time>2023-11-04T13:43:37Z</time>
      </trkpt>
      <trkpt lat="47.1879" lon="-1.66346">
        <ele>9</ele>
        <time>2023-11-04T13:46:09Z</time>
      </trkpt>
      <trkpt lat="47.18744" lon="-1.6649">
        <ele>9</ele>
        <time>2023-11-04T13:48:34Z</time>
      </trkpt>
      <trkpt lat="47.18774" lon="-1.66525">
        <ele>7</ele>
        <time>2023-11-04T13:49:25Z</time>
      </trkpt>
      <trkpt lat="47.18806" lon="-1.66779">
        <ele>8</ele>
        <time>2023-11-04T13:53:19Z</time>
      </trkpt>
      <trkpt lat="47.18823" lon="-1.66833">
        <ele>7</ele>
        <time>2023-11-04T13:54:13Z</time>
      </trkpt>
      <trkpt lat="47.18846" lon="-1.66965">
        <ele>13</ele>
        <time>2023-11-04T13:56:17Z</time>
      </trkpt>
      <trkpt lat="47.18868" lon="-1.67066">
        <ele>14</ele>
        <time>2023-11-04T13:57:53Z</time>
      </trkpt>
      <trkpt lat="47.18876" lon="-1.67219">
        <ele>20</ele>
        <time>2023-11-04T14:00:12Z</time>
      </trkpt>
      <trkpt lat="47.18846" lon="-1.67259">
        <ele>28</ele>
        <time>2023-11-04T14:01:06Z</time>
      </trkpt>
      <trkpt lat="47.18862" lon="-1.67304">
        <ele>27</ele>
        <time>2023-11-04T14:01:52Z</time>
      </trkpt>
      <trkpt lat="47.18887" lon="-1.67408">
        <ele>28</ele>
        <time>2023-11-04T14:03:32Z</time>
      </trkpt>
      <trkpt lat="47.18919" lon="-1.67449">
        <ele>26</ele>
        <time>2023-11-04T14:04:29Z</time>
      </trkpt>
      <trkpt lat="47.18914" lon="-1.67484">
        <ele>28</ele>
        <time>2023-11-04T14:05:01Z</time>
      </trkpt>
      <trkpt lat="47.18916" lon="-1.67541">
        <ele>30</ele>
        <time>2023-11-04T14:05:53Z</time>
      </trkpt>
      <trkpt lat="47.18934" lon="-1.67566">
        <ele>25</ele>
        <time>2023-11-04T14:06:26Z</time>
      </trkpt>
      <trkpt lat="47.18936" lon="-1.67587">
        <ele>25</ele>
        <time>2023-11-04T14:06:45Z</time>
      </trkpt>
      <trkpt lat="47.18924" lon="-1.67616">
        <ele>29</ele>
        <time>2023-11-04T14:07:16Z</time>
      </trkpt>
      <trkpt lat="47.1892" lon="-1.6766">
        <ele>31</ele>
        <time>2023-11-04T14:07:56Z</time>
      </trkpt>
      <trkpt lat="47.18934" lon="-1.67699">
        <ele>27</ele>
        <time>2023-11-04T14:08:36Z</time>
      </trkpt>
      <trkpt lat="47.18906" lon="-1.6773">
        <ele>32</ele>
        <time>2023-11-04T14:09:23Z</time>
      </trkpt>
      <trkpt lat="47.18918" lon="-1.6783">
        <ele>29</ele>
        <time>2023-11-04T14:10:55Z</time>
      </trkpt>
      <trkpt lat="47.18918" lon="-1.67888">
        <ele>31</ele>
        <time>2023-11-04T14:11:48Z</time>
      </trkpt>
      <trkpt lat="47.1895" lon="-1.67878">
        <ele>26</ele>
        <time>2023-11-04T14:12:31Z</time>
      </trkpt>
      <trkpt lat="47.18972" lon="-1.67894">
        <ele>25</ele>
        <time>2023-11-04T14:13:04Z</time>
      </trkpt>
      <trkpt lat="47.18988" lon="-1.67943">
        <ele>27</ele>
        <time>2023-11-04T14:13:53Z</time>
      </trkpt>
      <trkpt lat="47.18979" lon="-1.67969">
        <ele>30</ele>
        <time>2023-11-04T14:14:20Z</time>
      </trkpt>
      <trkpt lat="47.18999" lon="-1.68026">
        <ele>32</ele>
        <time>2023-11-04T14:15:18Z</time>
      </trkpt>
      <trkpt lat="47.19057" lon="-1.68026">
        <ele>24</ele>
        <time>2023-11-04T14:16:35Z</time>
      </trkpt>
      <trkpt lat="47.19079" lon="-1.68039">
        <ele>23</ele>
        <time>2023-11-04T14:17:07Z</time>
      </trkpt>
      <trkpt lat="47.19104" lon="-1.68096">
        <ele>25</ele>
        <time>2023-11-04T14:18:09Z</time>
      </trkpt>
      <trkpt lat="47.19117" lon="-1.68148">
        <ele>25</ele>
        <time>2023-11-04T14:18:59Z</time>
      </trkpt>
      <trkpt lat="47.19123" lon="-1.68198">
        <ele>26</ele>
        <time>2023-11-04T14:19:45Z</time>
      </trkpt>
      <trkpt lat="47.19141" lon="-1.68186">
        <ele>21</ele>
        <time>2023-11-04T14:20:11Z</time>
      </trkpt>
      <trkpt lat="47.19155" lon="-1.68208">
        <ele>20</ele>
        <time>2023-11-04T14:20:39Z</time>
      </trkpt>
      <trkpt lat="47.19183" lon="-1.68241">
        <ele>17</ele>
        <time>2023-11-04T14:21:26Z</time>
      </trkpt>
      <trkpt lat="47.19197" lon="-1.68294">
        <ele>17</ele>
        <time>2023-11-04T14:22:18Z</time>
      </trkpt>
      <trkpt lat="47.19198" lon="-1.6839">
        <ele>21</ele>
        <time>2023-11-04T14:23:45Z</time>
      </trkpt>
      <trkpt lat="47.19206" lon="-1.68507">
        <ele>23</ele>
        <time>2023-11-04T14:25:32Z</time>
      </trkpt>
      <trkpt lat="47.19232" lon="-1.68543">
        <ele>21</ele>
        <time>2023-11-04T14:26:19Z</time>
      </trkpt>
      <trkpt lat="47.19242" lon="-1.6868">
        <ele>26</ele>
        <time>2023-11-04T14:28:24Z</time>
      </trkpt>
      <trkpt lat="47.19224" lon="-1.68735">
        <ele>29</ele>
        <time>2023-11-04T14:29:20Z</time>
      </trkpt>
      <trkpt lat="47.19244" lon="-1.68819">
        <ele>30</ele>
        <time>2023-11-04T14:30:40Z</time>
      </trkpt>
      <trkpt lat="47.1929" lon="-1.68936">
        <ele>29</ele>
        <time>2023-11-04T14:32:43Z</time>
      </trkpt>
      <trkpt lat="47.19339" lon="-1.69019">
        <ele>26</ele>
        <time>2023-11-04T14:34:23Z</time>
      </trkpt>
      <trkpt lat="47.19246" lon="-1.69088">
        <ele>31</ele>
        <time>2023-11-04T14:36:42Z</time>
      </trkpt>
      <trkpt lat="47.19108" lon="-1.69214">
        <ele>29</ele>
        <time>2023-11-04T14:40:18Z</time>
      </trkpt>
      <trkpt lat="47.18999" lon="-1.69265">
        <ele>26</ele>
        <time>2023-11-04T14:42:51Z</time>
      </trkpt>
      <trkpt lat="47.18985" lon="-1.69228">
        <ele>26</ele>
        <time>2023-11-04T14:43:29Z</time>
      </trkpt>
      <trkpt lat="47.18901" lon="-1.6927">
        <ele>22</ele>
        <time>2023-11-04T14:45:28Z</time>
      </trkpt>
      <trkpt lat="47.18823" lon="-1.69321">
        <ele>21</ele>
        <time>2023-11-04T14:47:22Z</time>
      </trkpt>
      <trkpt lat="47.1876" lon="-1.69365">
        <ele>23</ele>
        <time>2023-11-04T14:48:55Z</time>
      </trkpt>
      <trkpt lat="47.18722" lon="-1.69407">
        <ele>24</ele>
        <time>2023-11-04T14:49:58Z</time>
      </trkpt>
      <trkpt lat="47.18675" lon="-1.69441">
        <ele>25</ele>
        <time>2023-11-04T14:51:08Z</time>
      </trkpt>
      <trkpt lat="47.18688" lon="-1.69502">
        <ele>27</ele>
        <time>2023-11-04T14:52:06Z</time>
      </trkpt>
      <trkpt lat="47.18633" lon="-1.69567">
        <ele>26</ele>
        <time>2023-11-04T14:53:40Z</time>
      </trkpt>
      <trkpt lat="47.18594" lon="-1.69608">
        <ele>27</ele>
        <time>2023-11-04T14:54:44Z</time>
      </trkpt>
      <trkpt lat="47.18555" lon="-1.69574">
        <ele>27</ele>
        <time>2023-11-04T14:55:45Z</time>
      </trkpt>
      <trkpt lat="47.18493" lon="-1.69465">
        <ele>29</ele>
        <time>2023-11-04T14:57:53Z</time>
      </trkpt>
      <trkpt lat="47.18403" lon="-1.69312">
        <ele>30</ele>
        <time>2023-11-04T15:00:57Z</time>
      </trkpt>
      <trkpt lat="47.18355" lon="-1.69288">
        <ele>30</ele>
        <time>2023-11-04T15:02:05Z</time>
      </trkpt>
      <trkpt lat="47.1832" lon="-1.6928">
        <ele>30</ele>
        <time>2023-11-04T15:02:52Z</time>
      </trkpt>
      <trkpt lat="47.18292" lon="-1.69266">
        <ele>30</ele>
        <time>2023-11-04T15:03:31Z</time>
      </trkpt>
      <trkpt lat="47.18239" lon="-1.69214">
        <ele>31</ele>
        <time>2023-11-04T15:04:56Z</time>
      </trkpt>
      <trkpt lat="47.18135" lon="-1.69078">
        <ele>29</ele>
        <time>2023-11-04T15:08:02Z</time>
      </trkpt>
      <trkpt lat="47.18126" lon="-1.68999">
        <ele>26</ele>
        <time>2023-11-04T15:09:15Z</time>
      </trkpt>
      <trkpt lat="47.18085" lon="-1.68837">
        <ele>27</ele>
        <time>2023-11-04T15:11:52Z</time>
      </trkpt>
      <trkpt lat="47.18028" lon="-1.68713">
        <ele>28</ele>
        <time>2023-11-04T15:14:07Z</time>
      </trkpt>
      <trkpt lat="47.17957" lon="-1.6855">
        <ele>31</ele>
        <time>2023-11-04T15:17:03Z</time>
      </trkpt>
      <trkpt lat="47.17892" lon="-1.68429">
        <ele>33</ele>
        <time>2023-11-04T15:19:23Z</time>
      </trkpt>
      <trkpt lat="47.17854" lon="-1.68343">
        <ele>35</ele>
        <time>2023-11-04T15:20:56Z</time>
      </trkpt>
      <trkpt lat="47.17742" lon="-1.68312">
        <ele>34</ele>
        <time>2023-11-04T15:23:28Z</time>
      </trkpt>
      <trkpt lat="47.17748" lon="-1.68234">
        <ele>35</ele>
        <time>2023-11-04T15:24:39Z</time>
      </trkpt>
      <trkpt lat="47.17793" lon="-1.68121">
        <ele>35</ele>
        <time>2023-11-04T15:26:38Z</time>
      </trkpt>
      <trkpt lat="47.17762" lon="-1.68111">
        <ele>35</ele>
        <time>2023-11-04T15:27:20Z</time>
      </trkpt>
      <trkpt lat="47.17728" lon="-1.68075">
        <ele>34</ele>
        <time>2023-11-04T15:28:16Z</time>
      </trkpt>
      <trkpt lat="47.17652" lon="-1.67972">
        <ele>33</ele>
        <time>2023-11-04T15:30:34Z</time>
      </trkpt>
      <trkpt lat="47.17661" lon="-1.67924">
        <ele>34</ele>
        <time>2023-11-04T15:31:19Z</time>
      </trkpt>
      <trkpt lat="47.17668" lon="-1.67879">
        <ele>34</ele>
        <time>2023-11-04T15:32:01Z</time>
      </trkpt>
      <trkpt lat="47.17652" lon="-1.67822">
        <ele>34</ele>
        <time>2023-11-04T15:32:57Z</time>
      </trkpt>
      <trkpt lat="47.1761" lon="-1.6777">
        <ele>33</ele>
        <time>2023-11-04T15:34:10Z</time>
      </trkpt>
      <trkpt lat="47.17679" lon="-1.67707">
        <ele>34</ele>
        <time>2023-11-04T15:35:59Z</time>
      </trkpt>
    </trkseg>
  </trk>
</gpx>